sensor_id;sensor_type;location;lat;lon;timestamp;temperature;humidity
6307;DHT22;3186;54.062;9.962;2023-04-12T00:01:35;6.30;99.90
6307;DHT22;3186;54.062;9.962;2023-04-12T00:04:01;6.30;99.90
6307;DHT22;3186;54.062;9.962;2023-04-12T00:06:32;6.20;99.90
6307;DHT22;3186;54.062;9.962;2023-04-12T00:09:00;6.20;99.90
6307;DHT22;3186;54.062;9.962;2023-04-12T00:11:27;6.10;99.90
6307;DHT22;3186;54.062;9.962;2023-04-12T00:13:54;6.10;99.90
6307;DHT22;3186;54.062;9.962;2023-04-12T00:16:20;6.10;99.90
6307;DHT22;3186;54.062;9.962;2023-04-12T00:18:46;6.10;99.90
6307;DHT22;3186;54.062;9.962;2023-04-12T00:21:12;6.00;99.90
6307;DHT22;3186;54.062;9.962;2023-04-12T00:23:38;6.00;99.90
6307;DHT22;3186;54.062;9.962;2023-04-12T00:26:04;6.00;99.90
6307;DHT22;3186;54.062;9.962;2023-04-12T00:28:30;5.90;99.90
6307;DHT22;3186;54.062;9.962;2023-04-12T00:30:56;5.90;99.90
6307;DHT22;3186;54.062;9.962;2023-04-12T00:33:22;5.90;99.90
6307;DHT22;3186;54.062;9.962;2023-04-12T00:35:48;5.90;99.90
6307;DHT22;3186;54.062;9.962;2023-04-12T00:38:14;5.80;99.90
6307;DHT22;3186;54.062;9.962;2023-04-12T00:40:44;5.80;99.90
6307;DHT22;3186;54.062;9.962;2023-04-12T00:43:10;5.80;99.90
6307;DHT22;3186;54.062;9.962;2023-04-12T00:45:46;5.70;99.90
6307;DHT22;3186;54.062;9.962;2023-04-12T00:48:13;5.70;99.90
6307;DHT22;3186;54.062;9.962;2023-04-12T00:50:40;5.70;99.90
6307;DHT22;3186;54.062;9.962;2023-04-12T00:53:06;5.70;99.90
6307;DHT22;3186;54.062;9.962;2023-04-12T00:55:36;5.60;99.90
6307;DHT22;3186;54.062;9.962;2023-04-12T00:58:02;5.60;99.90
6307;DHT22;3186;54.062;9.962;2023-04-12T01:00:28;5.60;99.90
6307;DHT22;3186;54.062;9.962;2023-04-12T01:02:53;5.50;99.90
6307;DHT22;3186;54.062;9.962;2023-04-12T01:05:21;5.50;99.90
6307;DHT22;3186;54.062;9.962;2023-04-12T01:10:43;5.50;99.90
6307;DHT22;3186;54.062;9.962;2023-04-12T01:15:53;5.40;99.90
6307;DHT22;3186;54.062;9.962;2023-04-12T01:18:23;5.40;99.90
6307;DHT22;3186;54.062;9.962;2023-04-12T01:21:00;5.30;99.90
6307;DHT22;3186;54.062;9.962;2023-04-12T01:23:42;5.30;99.90
6307;DHT22;3186;54.062;9.962;2023-04-12T01:26:41;5.30;99.90
6307;DHT22;3186;54.062;9.962;2023-04-12T01:29:11;5.20;99.90
6307;DHT22;3186;54.062;9.962;2023-04-12T01:31:39;5.20;99.90
6307;DHT22;3186;54.062;9.962;2023-04-12T01:34:08;5.20;99.90
6307;DHT22;3186;54.062;9.962;2023-04-12T01:36:37;5.20;99.90
6307;DHT22;3186;54.062;9.962;2023-04-12T01:39:05;5.20;99.90
6307;DHT22;3186;54.062;9.962;2023-04-12T01:41:31;5.10;99.90
6307;DHT22;3186;54.062;9.962;2023-04-12T01:43:57;5.10;99.90
6307;DHT22;3186;54.062;9.962;2023-04-12T01:46:23;5.10;99.90
6307;DHT22;3186;54.062;9.962;2023-04-12T01:48:51;5.10;99.90
6307;DHT22;3186;54.062;9.962;2023-04-12T01:54:25;5.10;99.90
6307;DHT22;3186;54.062;9.962;2023-04-12T01:57:03;5.00;99.90
6307;DHT22;3186;54.062;9.962;2023-04-12T01:59:40;5.10;99.90
6307;DHT22;3186;54.062;9.962;2023-04-12T02:02:09;5.00;99.90
6307;DHT22;3186;54.062;9.962;2023-04-12T02:04:36;5.00;99.90
6307;DHT22;3186;54.062;9.962;2023-04-12T02:07:02;5.00;99.90
6307;DHT22;3186;54.062;9.962;2023-04-12T02:09:28;4.90;99.90
6307;DHT22;3186;54.062;9.962;2023-04-12T02:11:55;4.80;99.90
6307;DHT22;3186;54.062;9.962;2023-04-12T02:14:21;4.80;99.90
6307;DHT22;3186;54.062;9.962;2023-04-12T02:16:47;4.80;99.90
6307;DHT22;3186;54.062;9.962;2023-04-12T02:19:15;4.80;99.90
6307;DHT22;3186;54.062;9.962;2023-04-12T02:21:43;4.80;99.90
6307;DHT22;3186;54.062;9.962;2023-04-12T02:24:10;4.80;99.90
6307;DHT22;3186;54.062;9.962;2023-04-12T02:26:37;4.80;99.90
6307;DHT22;3186;54.062;9.962;2023-04-12T02:29:06;4.80;99.90
6307;DHT22;3186;54.062;9.962;2023-04-12T02:31:35;4.80;99.90
6307;DHT22;3186;54.062;9.962;2023-04-12T02:34:04;4.80;99.90
6307;DHT22;3186;54.062;9.962;2023-04-12T02:36:31;4.70;99.90
6307;DHT22;3186;54.062;9.962;2023-04-12T02:38:57;4.80;99.90
6307;DHT22;3186;54.062;9.962;2023-04-12T02:41:24;4.90;99.90
6307;DHT22;3186;54.062;9.962;2023-04-12T02:43:51;4.80;99.90
6307;DHT22;3186;54.062;9.962;2023-04-12T02:46:21;4.80;99.90
6307;DHT22;3186;54.062;9.962;2023-04-12T02:48:51;4.90;99.90
6307;DHT22;3186;54.062;9.962;2023-04-12T02:51:19;4.80;99.90
6307;DHT22;3186;54.062;9.962;2023-04-12T02:53:48;4.80;99.90
6307;DHT22;3186;54.062;9.962;2023-04-12T02:56:21;4.80;99.90
6307;DHT22;3186;54.062;9.962;2023-04-12T02:58:55;4.80;99.90
6307;DHT22;3186;54.062;9.962;2023-04-12T03:01:53;4.80;99.90
6307;DHT22;3186;54.062;9.962;2023-04-12T03:04:26;4.80;99.90
6307;DHT22;3186;54.062;9.962;2023-04-12T03:06:57;4.80;99.90
6307;DHT22;3186;54.062;9.962;2023-04-12T03:09:30;4.80;99.90
6307;DHT22;3186;54.062;9.962;2023-04-12T03:11:57;4.80;99.90
6307;DHT22;3186;54.062;9.962;2023-04-12T03:14:24;4.80;99.90
6307;DHT22;3186;54.062;9.962;2023-04-12T03:16:51;4.80;99.90
6307;DHT22;3186;54.062;9.962;2023-04-12T03:19:18;4.80;99.90
6307;DHT22;3186;54.062;9.962;2023-04-12T03:21:50;4.70;99.90
6307;DHT22;3186;54.062;9.962;2023-04-12T03:24:16;4.90;99.90
6307;DHT22;3186;54.062;9.962;2023-04-12T03:26:42;4.70;99.90
6307;DHT22;3186;54.062;9.962;2023-04-12T03:29:19;4.70;99.90
6307;DHT22;3186;54.062;9.962;2023-04-12T03:31:48;4.80;99.90
6307;DHT22;3186;54.062;9.962;2023-04-12T03:34:13;4.70;99.90
6307;DHT22;3186;54.062;9.962;2023-04-12T03:36:43;4.70;99.90
6307;DHT22;3186;54.062;9.962;2023-04-12T03:39:17;4.70;99.90
6307;DHT22;3186;54.062;9.962;2023-04-12T03:41:53;4.70;99.90
6307;DHT22;3186;54.062;9.962;2023-04-12T03:44:24;4.70;99.90
6307;DHT22;3186;54.062;9.962;2023-04-12T03:46:53;4.70;99.90
6307;DHT22;3186;54.062;9.962;2023-04-12T03:49:20;4.70;99.90
6307;DHT22;3186;54.062;9.962;2023-04-12T03:51:47;4.70;99.90
6307;DHT22;3186;54.062;9.962;2023-04-12T03:54:15;4.70;99.90
6307;DHT22;3186;54.062;9.962;2023-04-12T03:56:56;4.70;99.90
6307;DHT22;3186;54.062;9.962;2023-04-12T03:59:28;4.70;99.90
6307;DHT22;3186;54.062;9.962;2023-04-12T04:01:56;4.70;99.90
6307;DHT22;3186;54.062;9.962;2023-04-12T04:04:25;4.70;99.90
6307;DHT22;3186;54.062;9.962;2023-04-12T04:06:55;4.70;99.90
6307;DHT22;3186;54.062;9.962;2023-04-12T04:09:22;4.70;99.90
6307;DHT22;3186;54.062;9.962;2023-04-12T04:11:50;4.70;99.90
6307;DHT22;3186;54.062;9.962;2023-04-12T04:14:17;4.70;99.90
6307;DHT22;3186;54.062;9.962;2023-04-12T04:16:44;4.60;99.90
6307;DHT22;3186;54.062;9.962;2023-04-12T04:19:10;4.70;99.90
6307;DHT22;3186;54.062;9.962;2023-04-12T04:21:36;4.60;99.90
6307;DHT22;3186;54.062;9.962;2023-04-12T04:24:05;4.60;99.90
6307;DHT22;3186;54.062;9.962;2023-04-12T04:26:36;4.70;99.90
6307;DHT22;3186;54.062;9.962;2023-04-12T04:29:12;4.60;99.90
6307;DHT22;3186;54.062;9.962;2023-04-12T04:31:38;4.70;99.90
6307;DHT22;3186;54.062;9.962;2023-04-12T04:34:06;4.70;99.90
6307;DHT22;3186;54.062;9.962;2023-04-12T04:36:37;4.70;99.90
6307;DHT22;3186;54.062;9.962;2023-04-12T04:39:04;4.70;99.90
6307;DHT22;3186;54.062;9.962;2023-04-12T04:41:36;4.60;99.90
6307;DHT22;3186;54.062;9.962;2023-04-12T04:44:14;4.60;99.90
6307;DHT22;3186;54.062;9.962;2023-04-12T04:46:55;4.60;99.90
6307;DHT22;3186;54.062;9.962;2023-04-12T04:49:24;4.60;99.90
6307;DHT22;3186;54.062;9.962;2023-04-12T04:51:50;4.70;99.90
6307;DHT22;3186;54.062;9.962;2023-04-12T04:54:17;4.70;99.90
6307;DHT22;3186;54.062;9.962;2023-04-12T04:56:43;4.70;99.90
6307;DHT22;3186;54.062;9.962;2023-04-12T04:59:11;4.60;99.90
6307;DHT22;3186;54.062;9.962;2023-04-12T05:01:38;4.60;99.90
6307;DHT22;3186;54.062;9.962;2023-04-12T05:04:06;4.60;99.90
6307;DHT22;3186;54.062;9.962;2023-04-12T05:06:32;4.60;99.90
6307;DHT22;3186;54.062;9.962;2023-04-12T05:08:58;4.70;99.90
6307;DHT22;3186;54.062;9.962;2023-04-12T05:11:30;4.70;99.90
6307;DHT22;3186;54.062;9.962;2023-04-12T05:13:56;4.70;99.90
6307;DHT22;3186;54.062;9.962;2023-04-12T05:16:21;4.70;99.90
6307;DHT22;3186;54.062;9.962;2023-04-12T05:18:47;4.90;99.90
6307;DHT22;3186;54.062;9.962;2023-04-12T05:21:13;4.70;99.90
6307;DHT22;3186;54.062;9.962;2023-04-12T05:23:44;4.70;99.90
6307;DHT22;3186;54.062;9.962;2023-04-12T05:26:12;4.80;99.90
6307;DHT22;3186;54.062;9.962;2023-04-12T05:28:40;4.80;99.90
6307;DHT22;3186;54.062;9.962;2023-04-12T05:31:08;4.70;99.90
6307;DHT22;3186;54.062;9.962;2023-04-12T05:33:37;4.80;99.90
6307;DHT22;3186;54.062;9.962;2023-04-12T05:36:03;4.80;99.90
6307;DHT22;3186;54.062;9.962;2023-04-12T05:38:30;4.80;99.90
6307;DHT22;3186;54.062;9.962;2023-04-12T05:40:59;4.80;99.90
6307;DHT22;3186;54.062;9.962;2023-04-12T05:43:30;4.90;99.90
6307;DHT22;3186;54.062;9.962;2023-04-12T05:45:56;4.90;99.90
6307;DHT22;3186;54.062;9.962;2023-04-12T05:48:22;4.90;99.90
6307;DHT22;3186;54.062;9.962;2023-04-12T05:50:52;4.90;99.90
6307;DHT22;3186;54.062;9.962;2023-04-12T05:53:20;4.90;99.90
6307;DHT22;3186;54.062;9.962;2023-04-12T05:55:46;5.00;99.90
6307;DHT22;3186;54.062;9.962;2023-04-12T05:58:14;5.00;99.90
6307;DHT22;3186;54.062;9.962;2023-04-12T06:00:41;5.10;99.90
6307;DHT22;3186;54.062;9.962;2023-04-12T06:03:10;5.10;99.90
6307;DHT22;3186;54.062;9.962;2023-04-12T06:05:37;5.10;99.90
6307;DHT22;3186;54.062;9.962;2023-04-12T06:08:03;5.10;99.90
6307;DHT22;3186;54.062;9.962;2023-04-12T06:10:30;5.10;99.90
6307;DHT22;3186;54.062;9.962;2023-04-12T06:12:56;5.20;99.90
6307;DHT22;3186;54.062;9.962;2023-04-12T06:15:22;5.30;99.90
6307;DHT22;3186;54.062;9.962;2023-04-12T06:17:53;5.30;99.90
6307;DHT22;3186;54.062;9.962;2023-04-12T06:20:19;5.40;99.90
6307;DHT22;3186;54.062;9.962;2023-04-12T06:22:45;5.40;99.90
6307;DHT22;3186;54.062;9.962;2023-04-12T06:25:15;5.50;99.90
6307;DHT22;3186;54.062;9.962;2023-04-12T06:27:43;5.60;99.90
6307;DHT22;3186;54.062;9.962;2023-04-12T06:30:11;5.60;99.90
6307;DHT22;3186;54.062;9.962;2023-04-12T06:32:37;5.70;99.90
6307;DHT22;3186;54.062;9.962;2023-04-12T06:35:04;5.70;99.90
6307;DHT22;3186;54.062;9.962;2023-04-12T06:37:31;5.80;99.90
6307;DHT22;3186;54.062;9.962;2023-04-12T06:39:57;5.90;99.90
6307;DHT22;3186;54.062;9.962;2023-04-12T06:42:23;6.00;99.90
6307;DHT22;3186;54.062;9.962;2023-04-12T06:44:49;6.00;99.90
6307;DHT22;3186;54.062;9.962;2023-04-12T06:47:15;6.10;99.90
6307;DHT22;3186;54.062;9.962;2023-04-12T06:49:40;6.20;99.90
6307;DHT22;3186;54.062;9.962;2023-04-12T06:52:06;6.30;99.90
6307;DHT22;3186;54.062;9.962;2023-04-12T06:54:35;6.50;99.90
6307;DHT22;3186;54.062;9.962;2023-04-12T06:57:01;6.50;99.90
6307;DHT22;3186;54.062;9.962;2023-04-12T06:59:27;6.60;99.90
6307;DHT22;3186;54.062;9.962;2023-04-12T07:01:53;6.70;99.90
6307;DHT22;3186;54.062;9.962;2023-04-12T07:04:19;6.90;99.90
6307;DHT22;3186;54.062;9.962;2023-04-12T07:06:45;7.10;99.90
6307;DHT22;3186;54.062;9.962;2023-04-12T07:09:11;7.00;99.90
6307;DHT22;3186;54.062;9.962;2023-04-12T07:11:40;7.10;99.90
6307;DHT22;3186;54.062;9.962;2023-04-12T07:14:06;7.40;99.90
6307;DHT22;3186;54.062;9.962;2023-04-12T07:16:32;7.60;99.90
6307;DHT22;3186;54.062;9.962;2023-04-12T07:18:59;7.50;99.90
6307;DHT22;3186;54.062;9.962;2023-04-12T07:21:25;7.40;99.90
6307;DHT22;3186;54.062;9.962;2023-04-12T07:23:52;7.50;99.90
6307;DHT22;3186;54.062;9.962;2023-04-12T07:26:17;7.90;99.90
6307;DHT22;3186;54.062;9.962;2023-04-12T07:28:44;7.90;99.90
6307;DHT22;3186;54.062;9.962;2023-04-12T07:31:09;8.10;99.90
6307;DHT22;3186;54.062;9.962;2023-04-12T07:33:35;8.10;99.90
6307;DHT22;3186;54.062;9.962;2023-04-12T07:36:02;8.20;99.90
6307;DHT22;3186;54.062;9.962;2023-04-12T07:38:28;8.30;99.90
6307;DHT22;3186;54.062;9.962;2023-04-12T07:40:54;8.60;98.60
6307;DHT22;3186;54.062;9.962;2023-04-12T07:43:20;8.50;94.60
6307;DHT22;3186;54.062;9.962;2023-04-12T07:45:46;8.50;99.70
6307;DHT22;3186;54.062;9.962;2023-04-12T07:48:12;9.10;94.40
6307;DHT22;3186;54.062;9.962;2023-04-12T07:50:38;9.30;79.90
6307;DHT22;3186;54.062;9.962;2023-04-12T07:53:22;9.50;79.30
6307;DHT22;3186;54.062;9.962;2023-04-12T07:55:49;9.40;72.20
6307;DHT22;3186;54.062;9.962;2023-04-12T07:58:16;9.50;72.00
6307;DHT22;3186;54.062;9.962;2023-04-12T08:00:45;9.20;78.20
6307;DHT22;3186;54.062;9.962;2023-04-12T08:03:13;9.30;81.70
6307;DHT22;3186;54.062;9.962;2023-04-12T08:05:39;9.20;86.20
6307;DHT22;3186;54.062;9.962;2023-04-12T08:08:06;9.30;77.10
6307;DHT22;3186;54.062;9.962;2023-04-12T08:10:33;9.40;77.80
6307;DHT22;3186;54.062;9.962;2023-04-12T08:12:59;9.40;72.40
6307;DHT22;3186;54.062;9.962;2023-04-12T08:15:25;9.40;72.00
6307;DHT22;3186;54.062;9.962;2023-04-12T08:17:50;9.30;71.20
6307;DHT22;3186;54.062;9.962;2023-04-12T08:20:16;9.50;74.00
6307;DHT22;3186;54.062;9.962;2023-04-12T08:22:43;9.70;73.20
6307;DHT22;3186;54.062;9.962;2023-04-12T08:25:09;9.80;73.40
6307;DHT22;3186;54.062;9.962;2023-04-12T08:27:37;9.80;69.30
6307;DHT22;3186;54.062;9.962;2023-04-12T08:30:04;10.00;62.40
6307;DHT22;3186;54.062;9.962;2023-04-12T08:32:30;9.80;61.50
6307;DHT22;3186;54.062;9.962;2023-04-12T08:34:56;9.90;64.70
6307;DHT22;3186;54.062;9.962;2023-04-12T08:37:22;9.90;60.30
6307;DHT22;3186;54.062;9.962;2023-04-12T08:39:47;10.00;61.70
6307;DHT22;3186;54.062;9.962;2023-04-12T08:42:14;10.10;48.80
6307;DHT22;3186;54.062;9.962;2023-04-12T08:44:41;10.30;58.70
6307;DHT22;3186;54.062;9.962;2023-04-12T08:47:10;10.20;58.20
6307;DHT22;3186;54.062;9.962;2023-04-12T08:49:36;10.30;55.40
6307;DHT22;3186;54.062;9.962;2023-04-12T08:52:05;10.30;52.30
6307;DHT22;3186;54.062;9.962;2023-04-12T08:54:35;10.30;49.60
6307;DHT22;3186;54.062;9.962;2023-04-12T08:57:06;10.30;65.60
6307;DHT22;3186;54.062;9.962;2023-04-12T08:59:36;10.30;55.50
6307;DHT22;3186;54.062;9.962;2023-04-12T09:02:02;10.50;55.30
6307;DHT22;3186;54.062;9.962;2023-04-12T09:04:28;10.50;55.40
6307;DHT22;3186;54.062;9.962;2023-04-12T09:06:54;10.30;55.30
6307;DHT22;3186;54.062;9.962;2023-04-12T09:09:40;10.30;63.70
6307;DHT22;3186;54.062;9.962;2023-04-12T09:12:07;10.30;57.10
6307;DHT22;3186;54.062;9.962;2023-04-12T09:14:33;10.40;60.10
6307;DHT22;3186;54.062;9.962;2023-04-12T09:16:58;10.50;53.90
6307;DHT22;3186;54.062;9.962;2023-04-12T09:19:32;10.30;71.10
6307;DHT22;3186;54.062;9.962;2023-04-12T09:21:58;10.40;61.70
6307;DHT22;3186;54.062;9.962;2023-04-12T09:24:23;10.50;52.00
6307;DHT22;3186;54.062;9.962;2023-04-12T09:27:09;10.40;52.40
6307;DHT22;3186;54.062;9.962;2023-04-12T09:29:36;10.50;61.00
6307;DHT22;3186;54.062;9.962;2023-04-12T09:32:03;10.50;70.90
6307;DHT22;3186;54.062;9.962;2023-04-12T09:34:30;10.70;66.80
6307;DHT22;3186;54.062;9.962;2023-04-12T09:36:57;10.70;69.60
6307;DHT22;3186;54.062;9.962;2023-04-12T09:39:33;10.70;64.20
6307;DHT22;3186;54.062;9.962;2023-04-12T09:42:09;10.60;59.80
6307;DHT22;3186;54.062;9.962;2023-04-12T09:44:36;10.60;70.40
6307;DHT22;3186;54.062;9.962;2023-04-12T09:47:03;10.50;59.30
6307;DHT22;3186;54.062;9.962;2023-04-12T09:49:40;10.50;67.30
6307;DHT22;3186;54.062;9.962;2023-04-12T09:52:08;10.60;60.10
6307;DHT22;3186;54.062;9.962;2023-04-12T09:54:46;10.70;73.20
6307;DHT22;3186;54.062;9.962;2023-04-12T09:57:16;10.70;68.30
6307;DHT22;3186;54.062;9.962;2023-04-12T09:59:43;10.80;69.40
6307;DHT22;3186;54.062;9.962;2023-04-12T10:02:14;10.80;65.70
6307;DHT22;3186;54.062;9.962;2023-04-12T10:04:43;10.80;69.20
6307;DHT22;3186;54.062;9.962;2023-04-12T10:07:12;10.80;60.70
6307;DHT22;3186;54.062;9.962;2023-04-12T10:09:39;10.90;56.20
6307;DHT22;3186;54.062;9.962;2023-04-12T10:12:07;11.10;58.70
6307;DHT22;3186;54.062;9.962;2023-04-12T10:14:33;10.90;63.70
6307;DHT22;3186;54.062;9.962;2023-04-12T10:17:01;11.00;58.90
6307;DHT22;3186;54.062;9.962;2023-04-12T10:19:29;11.00;51.10
6307;DHT22;3186;54.062;9.962;2023-04-12T10:21:56;11.10;54.70
6307;DHT22;3186;54.062;9.962;2023-04-12T10:24:23;11.10;59.00
6307;DHT22;3186;54.062;9.962;2023-04-12T10:26:50;11.20;56.30
6307;DHT22;3186;54.062;9.962;2023-04-12T10:29:33;11.30;46.90
6307;DHT22;3186;54.062;9.962;2023-04-12T10:32:18;11.40;53.40
6307;DHT22;3186;54.062;9.962;2023-04-12T10:34:55;11.30;48.10
6307;DHT22;3186;54.062;9.962;2023-04-12T10:38:01;11.40;47.20
6307;DHT22;3186;54.062;9.962;2023-04-12T10:40:28;11.30;41.10
6307;DHT22;3186;54.062;9.962;2023-04-12T10:45:43;11.20;47.20
6307;DHT22;3186;54.062;9.962;2023-04-12T10:51:20;11.40;63.80
6307;DHT22;3186;54.062;9.962;2023-04-12T10:56:38;11.60;67.80
6307;DHT22;3186;54.062;9.962;2023-04-12T10:59:09;11.70;56.80
6307;DHT22;3186;54.062;9.962;2023-04-12T11:02:11;11.80;65.00
6307;DHT22;3186;54.062;9.962;2023-04-12T11:05:05;11.90;64.80
6307;DHT22;3186;54.062;9.962;2023-04-12T11:07:52;12.10;49.80
6307;DHT22;3186;54.062;9.962;2023-04-12T11:10:38;12.20;52.70
6307;DHT22;3186;54.062;9.962;2023-04-12T11:13:08;12.10;65.40
6307;DHT22;3186;54.062;9.962;2023-04-12T11:15:34;12.00;71.70
6307;DHT22;3186;54.062;9.962;2023-04-12T11:18:04;11.80;77.20
6307;DHT22;3186;54.062;9.962;2023-04-12T11:20:31;11.90;85.70
6307;DHT22;3186;54.062;9.962;2023-04-12T11:23:00;11.80;83.50
6307;DHT22;3186;54.062;9.962;2023-04-12T11:25:27;11.70;76.80
6307;DHT22;3186;54.062;9.962;2023-04-12T11:27:54;11.70;91.40
6307;DHT22;3186;54.062;9.962;2023-04-12T11:30:24;11.80;97.30
6307;DHT22;3186;54.062;9.962;2023-04-12T11:32:50;11.60;97.20
6307;DHT22;3186;54.062;9.962;2023-04-12T11:35:16;11.60;97.10
6307;DHT22;3186;54.062;9.962;2023-04-12T11:37:44;11.60;99.90
6307;DHT22;3186;54.062;9.962;2023-04-12T11:40:10;11.50;99.90
6307;DHT22;3186;54.062;9.962;2023-04-12T11:42:38;11.30;99.90
6307;DHT22;3186;54.062;9.962;2023-04-12T11:45:04;11.10;99.90
6307;DHT22;3186;54.062;9.962;2023-04-12T11:47:31;13.00;99.90
6307;DHT22;3186;54.062;9.962;2023-04-12T11:49:58;11.00;99.90
6307;DHT22;3186;54.062;9.962;2023-04-12T11:52:32;11.00;99.90
6307;DHT22;3186;54.062;9.962;2023-04-12T11:55:05;10.90;99.90
6307;DHT22;3186;54.062;9.962;2023-04-12T11:57:32;10.90;99.90
6307;DHT22;3186;54.062;9.962;2023-04-12T11:59:59;11.00;99.90
6307;DHT22;3186;54.062;9.962;2023-04-12T12:02:26;11.20;99.90
6307;DHT22;3186;54.062;9.962;2023-04-12T12:04:52;11.40;99.90
6307;DHT22;3186;54.062;9.962;2023-04-12T12:07:20;11.30;99.90
6307;DHT22;3186;54.062;9.962;2023-04-12T12:09:48;10.80;99.90
6307;DHT22;3186;54.062;9.962;2023-04-12T12:12:14;10.60;99.90
6307;DHT22;3186;54.062;9.962;2023-04-12T12:14:43;10.50;99.90
6307;DHT22;3186;54.062;9.962;2023-04-12T12:17:11;10.70;99.90
6307;DHT22;3186;54.062;9.962;2023-04-12T12:19:39;10.60;99.90
6307;DHT22;3186;54.062;9.962;2023-04-12T12:22:18;10.60;99.90
6307;DHT22;3186;54.062;9.962;2023-04-12T12:24:53;10.70;99.90
6307;DHT22;3186;54.062;9.962;2023-04-12T12:27:39;10.80;99.90
6307;DHT22;3186;54.062;9.962;2023-04-12T12:30:12;10.50;99.90
6307;DHT22;3186;54.062;9.962;2023-04-12T12:32:41;10.50;99.90
6307;DHT22;3186;54.062;9.962;2023-04-12T12:35:11;10.50;99.90
6307;DHT22;3186;54.062;9.962;2023-04-12T12:37:48;10.40;99.90
6307;DHT22;3186;54.062;9.962;2023-04-12T12:40:15;10.50;99.90
6307;DHT22;3186;54.062;9.962;2023-04-12T12:42:46;10.50;99.90
6307;DHT22;3186;54.062;9.962;2023-04-12T12:45:12;10.20;99.90
6307;DHT22;3186;54.062;9.962;2023-04-12T12:50:18;10.50;99.90
6307;DHT22;3186;54.062;9.962;2023-04-12T12:52:45;10.40;99.90
6307;DHT22;3186;54.062;9.962;2023-04-12T12:55:12;10.50;99.90
6307;DHT22;3186;54.062;9.962;2023-04-12T12:57:38;10.50;99.90
6307;DHT22;3186;54.062;9.962;2023-04-12T13:00:04;10.50;99.90
6307;DHT22;3186;54.062;9.962;2023-04-12T13:02:31;10.50;99.90
6307;DHT22;3186;54.062;9.962;2023-04-12T13:04:56;10.50;99.90
6307;DHT22;3186;54.062;9.962;2023-04-12T13:07:23;10.40;99.90
6307;DHT22;3186;54.062;9.962;2023-04-12T13:09:49;10.50;99.90
6307;DHT22;3186;54.062;9.962;2023-04-12T13:12:15;10.60;99.90
6307;DHT22;3186;54.062;9.962;2023-04-12T13:14:41;10.50;99.90
6307;DHT22;3186;54.062;9.962;2023-04-12T13:17:07;10.60;99.90
6307;DHT22;3186;54.062;9.962;2023-04-12T13:19:32;10.50;99.90
6307;DHT22;3186;54.062;9.962;2023-04-12T13:21:58;10.50;99.90
6307;DHT22;3186;54.062;9.962;2023-04-12T13:24:24;10.50;99.90
6307;DHT22;3186;54.062;9.962;2023-04-12T13:26:50;10.40;99.90
6307;DHT22;3186;54.062;9.962;2023-04-12T13:29:16;10.50;99.90
6307;DHT22;3186;54.062;9.962;2023-04-12T13:31:42;10.50;99.90
6307;DHT22;3186;54.062;9.962;2023-04-12T13:34:08;10.50;99.90
6307;DHT22;3186;54.062;9.962;2023-04-12T13:36:34;10.50;99.90
6307;DHT22;3186;54.062;9.962;2023-04-12T13:38:59;10.40;99.90
6307;DHT22;3186;54.062;9.962;2023-04-12T13:41:25;10.50;99.90
6307;DHT22;3186;54.062;9.962;2023-04-12T13:43:51;10.50;99.90
6307;DHT22;3186;54.062;9.962;2023-04-12T13:46:17;10.50;99.90
6307;DHT22;3186;54.062;9.962;2023-04-12T13:48:43;10.50;99.90
6307;DHT22;3186;54.062;9.962;2023-04-12T13:51:09;10.50;99.90
6307;DHT22;3186;54.062;9.962;2023-04-12T13:53:35;10.60;99.90
6307;DHT22;3186;54.062;9.962;2023-04-12T13:56:01;10.60;99.90
6307;DHT22;3186;54.062;9.962;2023-04-12T13:58:27;10.60;99.90
6307;DHT22;3186;54.062;9.962;2023-04-12T14:00:53;10.60;99.90
6307;DHT22;3186;54.062;9.962;2023-04-12T14:03:20;10.50;99.90
6307;DHT22;3186;54.062;9.962;2023-04-12T14:05:46;10.50;99.90
6307;DHT22;3186;54.062;9.962;2023-04-12T14:08:12;10.60;99.90
6307;DHT22;3186;54.062;9.962;2023-04-12T14:10:38;10.60;99.90
6307;DHT22;3186;54.062;9.962;2023-04-12T14:13:04;10.50;99.90
6307;DHT22;3186;54.062;9.962;2023-04-12T14:15:30;10.50;99.90
6307;DHT22;3186;54.062;9.962;2023-04-12T14:17:56;10.60;99.90
6307;DHT22;3186;54.062;9.962;2023-04-12T14:20:22;10.60;99.90
6307;DHT22;3186;54.062;9.962;2023-04-12T14:22:48;10.60;99.90
6307;DHT22;3186;54.062;9.962;2023-04-12T14:25:14;10.70;99.90
6307;DHT22;3186;54.062;9.962;2023-04-12T14:27:40;10.60;99.90
6307;DHT22;3186;54.062;9.962;2023-04-12T14:30:06;10.60;99.90
6307;DHT22;3186;54.062;9.962;2023-04-12T14:32:33;10.70;99.90
6307;DHT22;3186;54.062;9.962;2023-04-12T14:34:58;10.70;99.90
6307;DHT22;3186;54.062;9.962;2023-04-12T14:37:24;10.70;99.90
6307;DHT22;3186;54.062;9.962;2023-04-12T14:39:52;10.70;99.90
6307;DHT22;3186;54.062;9.962;2023-04-12T14:42:18;10.60;99.90
6307;DHT22;3186;54.062;9.962;2023-04-12T14:44:44;10.60;99.90
6307;DHT22;3186;54.062;9.962;2023-04-12T14:47:10;10.70;99.90
6307;DHT22;3186;54.062;9.962;2023-04-12T14:49:36;10.70;99.90
6307;DHT22;3186;54.062;9.962;2023-04-12T14:52:02;10.70;99.90
6307;DHT22;3186;54.062;9.962;2023-04-12T14:54:29;10.70;99.90
6307;DHT22;3186;54.062;9.962;2023-04-12T14:56:54;10.70;99.90
6307;DHT22;3186;54.062;9.962;2023-04-12T14:59:21;10.50;99.90
6307;DHT22;3186;54.062;9.962;2023-04-12T15:01:47;10.60;99.90
6307;DHT22;3186;54.062;9.962;2023-04-12T15:04:13;10.60;99.90
6307;DHT22;3186;54.062;9.962;2023-04-12T15:06:38;10.60;99.90
6307;DHT22;3186;54.062;9.962;2023-04-12T15:09:07;10.60;99.90
6307;DHT22;3186;54.062;9.962;2023-04-12T15:11:34;10.60;99.90
6307;DHT22;3186;54.062;9.962;2023-04-12T15:14:00;10.70;99.90
6307;DHT22;3186;54.062;9.962;2023-04-12T15:16:30;10.70;99.90
6307;DHT22;3186;54.062;9.962;2023-04-12T15:18:56;10.60;99.90
6307;DHT22;3186;54.062;9.962;2023-04-12T15:21:22;10.70;99.90
6307;DHT22;3186;54.062;9.962;2023-04-12T15:23:48;10.60;99.90
6307;DHT22;3186;54.062;9.962;2023-04-12T15:26:14;10.60;99.90
6307;DHT22;3186;54.062;9.962;2023-04-12T15:28:41;10.70;99.90
6307;DHT22;3186;54.062;9.962;2023-04-12T15:31:06;10.70;99.90
6307;DHT22;3186;54.062;9.962;2023-04-12T15:33:33;10.70;99.90
6307;DHT22;3186;54.062;9.962;2023-04-12T15:36:00;10.70;99.90
6307;DHT22;3186;54.062;9.962;2023-04-12T15:38:26;10.70;99.90
6307;DHT22;3186;54.062;9.962;2023-04-12T15:40:58;10.70;99.90
6307;DHT22;3186;54.062;9.962;2023-04-12T15:43:25;10.70;99.90
6307;DHT22;3186;54.062;9.962;2023-04-12T15:45:51;10.70;99.90
6307;DHT22;3186;54.062;9.962;2023-04-12T15:48:23;10.80;99.90
6307;DHT22;3186;54.062;9.962;2023-04-12T15:50:53;10.60;99.90
6307;DHT22;3186;54.062;9.962;2023-04-12T15:53:23;10.70;99.90
6307;DHT22;3186;54.062;9.962;2023-04-12T15:55:49;10.70;99.90
6307;DHT22;3186;54.062;9.962;2023-04-12T15:58:26;10.70;99.90
6307;DHT22;3186;54.062;9.962;2023-04-12T16:00:52;10.70;99.90
6307;DHT22;3186;54.062;9.962;2023-04-12T16:03:19;10.60;99.90
6307;DHT22;3186;54.062;9.962;2023-04-12T16:05:48;10.60;99.90
6307;DHT22;3186;54.062;9.962;2023-04-12T16:08:20;10.60;99.90
6307;DHT22;3186;54.062;9.962;2023-04-12T16:10:47;10.60;99.90
6307;DHT22;3186;54.062;9.962;2023-04-12T16:13:13;10.70;99.90
6307;DHT22;3186;54.062;9.962;2023-04-12T16:15:40;10.70;99.90
6307;DHT22;3186;54.062;9.962;2023-04-12T16:18:07;10.70;99.90
6307;DHT22;3186;54.062;9.962;2023-04-12T16:20:33;10.60;99.90
6307;DHT22;3186;54.062;9.962;2023-04-12T16:22:59;10.60;99.90
6307;DHT22;3186;54.062;9.962;2023-04-12T16:25:26;10.60;99.90
6307;DHT22;3186;54.062;9.962;2023-04-12T16:27:53;10.60;99.90
6307;DHT22;3186;54.062;9.962;2023-04-12T16:30:20;10.60;99.90
6307;DHT22;3186;54.062;9.962;2023-04-12T16:32:47;10.60;99.90
6307;DHT22;3186;54.062;9.962;2023-04-12T16:35:14;10.60;99.90
6307;DHT22;3186;54.062;9.962;2023-04-12T16:37:43;10.50;99.90